sensor_id;sensor_type;location;lat;lon;timestamp;pressure;altitude;pressure_sealevel;temperature;humidity
69707;BME280;56975;55.726;37.566;2023-10-19T00:05:00;98750.0;;;5.0;93.3
69707;BME280;56975;55.726;37.566;2023-10-19T00:10:07;98750.0;;;5.1;92.1
69707;BME280;56975;55.726;37.566;2023-10-19T00:15:00;98760.0;;;5.0;91.5
69707;BME280;56975;55.726;37.566;2023-10-19T00:20:00;98750.0;;;5.2;91.2
69707;BME280;56975;55.726;37.566;2023-10-19T00:25:07;98760.0;;;4.9;90.9
69707;BME280;56975;55.726;37.566;2023-10-19T00:35:00;98750.0;;;4.8;92.3
69707;BME280;56975;55.726;37.566;2023-10-19T00:40:08;98750.0;;;5.2;90.5
69707;BME280;56975;55.726;37.566;2023-10-19T00:45:00;98750.0;;;4.8;92.1
69707;BME280;56975;55.726;37.566;2023-10-19T00:50:00;98750.0;;;4.7;92.7
69707;BME280;56975;55.726;37.566;2023-10-19T01:00:08;98760.0;;;5.1;91.2
69707;BME280;56975;55.726;37.566;2023-10-19T01:05:00;98750.0;;;4.8;92.9
69707;BME280;56975;55.726;37.566;2023-10-19T01:10:02;98750.0;;;4.8;92.7
69707;BME280;56975;55.726;37.566;2023-10-19T01:15:10;98740.0;;;4.8;93.1
69707;BME280;56975;55.726;37.566;2023-10-19T01:20:00;98750.0;;;4.9;92.7
69707;BME280;56975;55.726;37.566;2023-10-19T01:25:02;98750.0;;;4.9;91.9
69707;BME280;56975;55.726;37.566;2023-10-19T01:30:08;98740.0;;;4.9;91.6
69707;BME280;56975;55.726;37.566;2023-10-19T01:35:00;98740.0;;;4.8;92.8
69707;BME280;56975;55.726;37.566;2023-10-19T01:40:00;98740.0;;;4.9;92.2
69707;BME280;56975;55.726;37.566;2023-10-19T01:50:08;98740.0;;;4.8;92.2
69707;BME280;56975;55.726;37.566;2023-10-19T01:55:00;98740.0;;;4.7;92.6
69707;BME280;56975;55.726;37.566;2023-10-19T02:00:00;98740.0;;;4.7;92.7
69707;BME280;56975;55.726;37.566;2023-10-19T02:15:07;98730.0;;;4.7;92.8
69707;BME280;56975;55.726;37.566;2023-10-19T02:25:00;98740.0;;;4.8;93.1
69707;BME280;56975;55.726;37.566;2023-10-19T02:30:08;98730.0;;;4.9;92.5
69707;BME280;56975;55.726;37.566;2023-10-19T03:00:00;98740.0;;;5.0;90.9
69707;BME280;56975;55.726;37.566;2023-10-19T03:05:07;98730.0;;;5.0;90.7
69707;BME280;56975;55.726;37.566;2023-10-19T03:10:00;98730.0;;;5.1;90.5
69707;BME280;56975;55.726;37.566;2023-10-19T03:15:00;98730.0;;;5.1;90.6
69707;BME280;56975;55.726;37.566;2023-10-19T03:20:07;98730.0;;;5.1;90.3
69707;BME280;56975;55.726;37.566;2023-10-19T03:25:00;98730.0;;;5.0;90.9
69707;BME280;56975;55.726;37.566;2023-10-19T03:30:00;98730.0;;;4.9;90.8
69707;BME280;56975;55.726;37.566;2023-10-19T03:35:07;98730.0;;;4.9;90.9
69707;BME280;56975;55.726;37.566;2023-10-19T03:40:00;98740.0;;;5.0;90.9
69707;BME280;56975;55.726;37.566;2023-10-19T03:45:00;98740.0;;;4.9;90.6
69707;BME280;56975;55.726;37.566;2023-10-19T03:50:08;98730.0;;;4.8;90.9
69707;BME280;56975;55.726;37.566;2023-10-19T03:55:00;98740.0;;;4.7;91.5
69707;BME280;56975;55.726;37.566;2023-10-19T04:00:00;98740.0;;;4.7;91.1
69707;BME280;56975;55.726;37.566;2023-10-19T04:10:08;98740.0;;;4.9;90.9
69707;BME280;56975;55.726;37.566;2023-10-19T04:15:00;98740.0;;;4.9;90.8
69707;BME280;56975;55.726;37.566;2023-10-19T04:20:00;98740.0;;;5.1;90.2
69707;BME280;56975;55.726;37.566;2023-10-19T04:30:08;98740.0;;;5.1;90.1
69707;BME280;56975;55.726;37.566;2023-10-19T04:35:00;98750.0;;;5.1;89.9
69707;BME280;56975;55.726;37.566;2023-10-19T04:40:00;98750.0;;;4.9;89.7
69707;BME280;56975;55.726;37.566;2023-10-19T04:45:07;98750.0;;;5.2;89.3
69707;BME280;56975;55.726;37.566;2023-10-19T04:50:00;98750.0;;;5.2;88.9
69707;BME280;56975;55.726;37.566;2023-10-19T04:55:00;98750.0;;;5.2;89.7
69707;BME280;56975;55.726;37.566;2023-10-19T05:00:08;98750.0;;;5.3;89.4
69707;BME280;56975;55.726;37.566;2023-10-19T05:05:00;98750.0;;;5.2;89.8
69707;BME280;56975;55.726;37.566;2023-10-19T05:10:00;98750.0;;;5.3;90.0
69707;BME280;56975;55.726;37.566;2023-10-19T05:15:08;98740.0;;;5.4;89.4
69707;BME280;56975;55.726;37.566;2023-10-19T05:20:00;98750.0;;;4.9;91.7
69707;BME280;56975;55.726;37.566;2023-10-19T05:25:00;98750.0;;;4.8;91.9
69707;BME280;56975;55.726;37.566;2023-10-19T05:35:07;98760.0;;;4.8;91.7
69707;BME280;56975;55.726;37.566;2023-10-19T05:40:00;98760.0;;;5.4;89.9
69707;BME280;56975;55.726;37.566;2023-10-19T05:45:00;98760.0;;;5.6;88.8
69707;BME280;56975;55.726;37.566;2023-10-19T05:50:07;98760.0;;;5.5;88.7
69707;BME280;56975;55.726;37.566;2023-10-19T06:10:00;98770.0;;;5.1;92.0
69707;BME280;56975;55.726;37.566;2023-10-19T06:15:00;98770.0;;;5.4;91.0
69707;BME280;56975;55.726;37.566;2023-10-19T06:20:08;98770.0;;;5.7;89.3
69707;BME280;56975;55.726;37.566;2023-10-19T06:50:08;98770.0;;;6.7;82.8
69707;BME280;56975;55.726;37.566;2023-10-19T07:00:00;98770.0;;;6.7;81.0
69707;BME280;56975;55.726;37.566;2023-10-19T07:05:08;98770.0;;;6.4;82.1
69707;BME280;56975;55.726;37.566;2023-10-19T07:10:00;98770.0;;;6.9;81.8
69707;BME280;56975;55.726;37.566;2023-10-19T07:15:00;98780.0;;;7.1;79.1
69707;BME280;56975;55.726;37.566;2023-10-19T07:30:08;98790.0;;;7.3;79.2
69707;BME280;56975;55.726;37.566;2023-10-19T07:40:00;98790.0;;;6.9;79.2
69707;BME280;56975;55.726;37.566;2023-10-19T07:45:08;98790.0;;;6.7;81.0
69707;BME280;56975;55.726;37.566;2023-10-19T07:55:00;98800.0;;;7.1;79.1
69707;BME280;56975;55.726;37.566;2023-10-19T08:00:08;98800.0;;;6.9;80.1
69707;BME280;56975;55.726;37.566;2023-10-19T08:05:00;98800.0;;;6.6;82.2
69707;BME280;56975;55.726;37.566;2023-10-19T08:10:00;98800.0;;;6.8;81.0
69707;BME280;56975;55.726;37.566;2023-10-19T08:30:08;98810.0;;;6.8;82.2
69707;BME280;56975;55.726;37.566;2023-10-19T08:35:00;98810.0;;;6.7;82.6
69707;BME280;56975;55.726;37.566;2023-10-19T08:40:00;98810.0;;;6.9;82.0
69707;BME280;56975;55.726;37.566;2023-10-19T08:55:07;98810.0;;;7.4;82.4
69707;BME280;56975;55.726;37.566;2023-10-19T09:00:00;98820.0;;;7.6;81.3
69707;BME280;56975;55.726;37.566;2023-10-19T09:05:05;98820.0;;;7.6;79.7
69707;BME280;56975;55.726;37.566;2023-10-19T09:10:08;98820.0;;;7.4;81.6
69707;BME280;56975;55.726;37.566;2023-10-19T09:15:00;98820.0;;;7.3;82.5
69707;BME280;56975;55.726;37.566;2023-10-19T09:20:00;98830.0;;;7.3;81.9
69707;BME280;56975;55.726;37.566;2023-10-19T09:25:07;98830.0;;;7.3;82.4
69707;BME280;56975;55.726;37.566;2023-10-19T09:45:08;98830.0;;;7.3;82.1
69707;BME280;56975;55.726;37.566;2023-10-19T09:55:08;98830.0;;;7.8;81.9
69707;BME280;56975;55.726;37.566;2023-10-19T10:10:08;98830.0;;;8.1;77.8
69707;BME280;56975;55.726;37.566;2023-10-19T10:15:01;98840.0;;;8.3;74.9
69707;BME280;56975;55.726;37.566;2023-10-19T10:25:08;98840.0;;;8.2;75.6
69707;BME280;56975;55.726;37.566;2023-10-19T10:40:08;98830.0;;;8.5;75.5
69707;BME280;56975;55.726;37.566;2023-10-19T10:45:00;98840.0;;;9.1;74.2
69707;BME280;56975;55.726;37.566;2023-10-19T11:00:08;98840.0;;;9.1;75.4
69707;BME280;56975;55.726;37.566;2023-10-19T11:05:00;98840.0;;;9.0;76.1
69707;BME280;56975;55.726;37.566;2023-10-19T11:10:00;98840.0;;;8.4;75.9
69707;BME280;56975;55.726;37.566;2023-10-19T11:20:08;98840.0;;;7.7;74.6
69707;BME280;56975;55.726;37.566;2023-10-19T11:30:00;98840.0;;;7.7;77.0
69707;BME280;56975;55.726;37.566;2023-10-19T11:40:08;98840.0;;;8.1;77.0
69707;BME280;56975;55.726;37.566;2023-10-19T11:45:00;98840.0;;;8.2;78.9
69707;BME280;56975;55.726;37.566;2023-10-19T11:50:00;98840.0;;;7.9;80.0
69707;BME280;56975;55.726;37.566;2023-10-19T11:55:07;98840.0;;;7.8;78.5
69707;BME280;56975;55.726;37.566;2023-10-19T12:00:00;98840.0;;;7.5;78.8
69707;BME280;56975;55.726;37.566;2023-10-19T12:15:08;98840.0;;;7.1;81.6
69707;BME280;56975;55.726;37.566;2023-10-19T12:25:00;98840.0;;;7.3;81.0
69707;BME280;56975;55.726;37.566;2023-10-19T12:40:08;98850.0;;;7.6;81.0
69707;BME280;56975;55.726;37.566;2023-10-19T12:45:00;98850.0;;;7.4;82.1
69707;BME280;56975;55.726;37.566;2023-10-19T12:50:00;98850.0;;;7.3;84.2
69707;BME280;56975;55.726;37.566;2023-10-19T12:55:07;98850.0;;;7.6;82.1
69707;BME280;56975;55.726;37.566;2023-10-19T13:25:07;98850.0;;;8.1;79.3
69707;BME280;56975;55.726;37.566;2023-10-19T13:35:00;98860.0;;;8.0;78.3
69707;BME280;56975;55.726;37.566;2023-10-19T13:40:08;98860.0;;;7.6;80.4
69707;BME280;56975;55.726;37.566;2023-10-19T13:50:00;98860.0;;;7.6;81.7
69707;BME280;56975;55.726;37.566;2023-10-19T14:10:08;98870.0;;;6.3;87.5
69707;BME280;56975;55.726;37.566;2023-10-19T14:15:00;98880.0;;;6.4;86.0
69707;BME280;56975;55.726;37.566;2023-10-19T14:20:00;98880.0;;;6.7;84.0
69707;BME280;56975;55.726;37.566;2023-10-19T14:25:08;98880.0;;;6.4;85.1
69707;BME280;56975;55.726;37.566;2023-10-19T14:30:00;98890.0;;;6.3;87.5
69707;BME280;56975;55.726;37.566;2023-10-19T14:40:08;98880.0;;;6.3;87.4
69707;BME280;56975;55.726;37.566;2023-10-19T14:45:00;98880.0;;;6.3;87.4
69707;BME280;56975;55.726;37.566;2023-10-19T14:55:08;98900.0;;;6.1;91.2
69707;BME280;56975;55.726;37.566;2023-10-19T15:20:08;98910.0;;;6.2;87.2
69707;BME280;56975;55.726;37.566;2023-10-19T15:25:00;98920.0;;;6.0;85.1
69707;BME280;56975;55.726;37.566;2023-10-19T15:30:00;98910.0;;;6.3;84.9
69707;BME280;56975;55.726;37.566;2023-10-19T15:40:08;98920.0;;;6.1;89.6
69707;BME280;56975;55.726;37.566;2023-10-19T15:45:00;98920.0;;;6.1;90.0
69707;BME280;56975;55.726;37.566;2023-10-19T15:50:00;98910.0;;;6.0;89.9
69707;BME280;56975;55.726;37.566;2023-10-19T15:55:07;98920.0;;;6.1;90.1
69707;BME280;56975;55.726;37.566;2023-10-19T16:10:08;98920.0;;;5.9;90.6
69707;BME280;56975;55.726;37.566;2023-10-19T16:15:00;98920.0;;;6.0;88.8
69707;BME280;56975;55.726;37.566;2023-10-19T16:20:00;98920.0;;;6.0;89.6
69707;BME280;56975;55.726;37.566;2023-10-19T16:30:08;98920.0;;;6.0;90.5
69707;BME280;56975;55.726;37.566;2023-10-19T16:40:00;98920.0;;;6.1;91.6
69707;BME280;56975;55.726;37.566;2023-10-19T16:45:08;98920.0;;;6.0;91.5
69707;BME280;56975;55.726;37.566;2023-10-19T16:50:00;98910.0;;;5.8;91.7
69707;BME280;56975;55.726;37.566;2023-10-19T17:00:08;98920.0;;;5.9;91.8
69707;BME280;56975;55.726;37.566;2023-10-19T17:10:00;98930.0;;;6.1;91.2
69707;BME280;56975;55.726;37.566;2023-10-19T17:15:08;98910.0;;;5.9;93.6
69707;BME280;56975;55.726;37.566;2023-10-19T17:20:00;98910.0;;;5.8;94.5
69707;BME280;56975;55.726;37.566;2023-10-19T17:25:00;98920.0;;;5.9;94.8
69707;BME280;56975;55.726;37.566;2023-10-19T17:30:08;98920.0;;;5.9;95.3
69707;BME280;56975;55.726;37.566;2023-10-19T17:35:00;98920.0;;;6.0;95.2
69707;BME280;56975;55.726;37.566;2023-10-19T17:40:01;98920.0;;;6.0;95.9
69707;BME280;56975;55.726;37.566;2023-10-19T17:45:08;98920.0;;;5.9;96.8
69707;BME280;56975;55.726;37.566;2023-10-19T17:50:00;98930.0;;;5.8;97.1
69707;BME280;56975;55.726;37.566;2023-10-19T18:15:08;98950.0;;;5.8;97.5
69707;BME280;56975;55.726;37.566;2023-10-19T18:20:00;98950.0;;;5.9;96.9
69707;BME280;56975;55.726;37.566;2023-10-19T18:25:00;98950.0;;;5.8;97.6
69707;BME280;56975;55.726;37.566;2023-10-19T18:30:08;98950.0;;;5.7;98.5
69707;BME280;56975;55.726;37.566;2023-10-19T18:40:00;98960.0;;;6.0;97.3
69707;BME280;56975;55.726;37.566;2023-10-19T18:45:08;98960.0;;;5.6;97.7
69707;BME280;56975;55.726;37.566;2023-10-19T18:55:00;98970.0;;;6.0;93.9
69707;BME280;56975;55.726;37.566;2023-10-19T19:00:08;98980.0;;;6.0;92.5
69707;BME280;56975;55.726;37.566;2023-10-19T19:15:08;98980.0;;;5.7;91.1
69707;BME280;56975;55.726;37.566;2023-10-19T19:20:00;98970.0;;;5.7;91.2
69707;BME280;56975;55.726;37.566;2023-10-19T19:25:00;98980.0;;;5.8;91.1
69707;BME280;56975;55.726;37.566;2023-10-19T19:30:08;98980.0;;;5.8;90.7
69707;BME280;56975;55.726;37.566;2023-10-19T19:40:00;98990.0;;;5.8;90.5
69707;BME280;56975;55.726;37.566;2023-10-19T19:50:08;98990.0;;;5.9;90.1
69707;BME280;56975;55.726;37.566;2023-10-19T19:55:00;99000.0;;;5.8;90.6
69707;BME280;56975;55.726;37.566;2023-10-19T20:00:01;99000.0;;;5.9;90.8
69707;BME280;56975;55.726;37.566;2023-10-19T20:30:08;98990.0;;;5.7;90.6
69707;BME280;56975;55.726;37.566;2023-10-19T20:50:07;99010.0;;;5.8;90.0
69707;BME280;56975;55.726;37.566;2023-10-19T20:55:00;99010.0;;;5.8;90.0
69707;BME280;56975;55.726;37.566;2023-10-19T21:00:00;99010.0;;;5.8;90.0
69707;BME280;56975;55.726;37.566;2023-10-19T21:05:08;99000.0;;;5.9;89.9
69707;BME280;56975;55.726;37.566;2023-10-19T21:10:00;99010.0;;;5.8;90.0
69707;BME280;56975;55.726;37.566;2023-10-19T21:15:00;99010.0;;;5.6;90.7
69707;BME280;56975;55.726;37.566;2023-10-19T21:20:08;99020.0;;;5.7;90.7
69707;BME280;56975;55.726;37.566;2023-10-19T21:25:00;99020.0;;;5.8;90.5
69707;BME280;56975;55.726;37.566;2023-10-19T21:30:00;99030.0;;;5.6;90.9
69707;BME280;56975;55.726;37.566;2023-10-19T21:35:08;99030.0;;;5.9;89.9
69707;BME280;56975;55.726;37.566;2023-10-19T21:40:02;99020.0;;;5.7;90.7
69707;BME280;56975;55.726;37.566;2023-10-19T21:45:00;99030.0;;;5.8;90.1
69707;BME280;56975;55.726;37.566;2023-10-19T21:55:07;99040.0;;;5.8;90.4
69707;BME280;56975;55.726;37.566;2023-10-19T22:00:00;99030.0;;;5.6;91.3
69707;BME280;56975;55.726;37.566;2023-10-19T22:10:08;99040.0;;;5.8;91.4
69707;BME280;56975;55.726;37.566;2023-10-19T22:15:00;99040.0;;;5.8;90.7
69707;BME280;56975;55.726;37.566;2023-10-19T22:20:00;99040.0;;;6.0;89.7
69707;BME280;56975;55.726;37.566;2023-10-19T22:25:08;99040.0;;;5.8;89.8
69707;BME280;56975;55.726;37.566;2023-10-19T22:40:07;99050.0;;;5.8;90.5
69707;BME280;56975;55.726;37.566;2023-10-19T22:45:00;99050.0;;;5.8;90.0
69707;BME280;56975;55.726;37.566;2023-10-19T22:55:08;99040.0;;;5.8;89.7
69707;BME280;56975;55.726;37.566;2023-10-19T23:00:00;99050.0;;;5.9;89.6
69707;BME280;56975;55.726;37.566;2023-10-19T23:05:00;99050.0;;;5.8;89.7
69707;BME280;56975;55.726;37.566;2023-10-19T23:10:07;99050.0;;;5.8;89.9
69707;BME280;56975;55.726;37.566;2023-10-19T23:15:00;99060.0;;;5.8;89.9
69707;BME280;56975;55.726;37.566;2023-10-19T23:20:00;99060.0;;;5.7;90.3
69707;BME280;56975;55.726;37.566;2023-10-19T23:25:07;99050.0;;;5.8;90.8
69707;BME280;56975;55.726;37.566;2023-10-19T23:30:00;99050.0;;;5.7;91.0
69707;BME280;56975;55.726;37.566;2023-10-19T23:35:00;99050.0;;;5.7;90.6
69707;BME280;56975;55.726;37.566;2023-10-19T23:50:08;99050.0;;;5.7;91.4
69707;BME280;56975;55.726;37.566;2023-10-19T23:55:00;99050.0;;;5.7;91.5
